createdAt,value
2023-03-24T00:00:31.582Z,99505.09
2023-03-24T00:02:36.729Z,99501.83
2023-03-24T00:04:42.187Z,99499.73
2023-03-24T00:06:47.276Z,99496.35
2023-03-24T00:08:52.285Z,99497.89
2023-03-24T00:10:57.402Z,99502.27
2023-03-24T00:13:02.464Z,99500.98
2023-03-24T00:15:07.518Z,99496.67
2023-03-24T00:17:12.608Z,99499.28
2023-03-24T00:19:17.785Z,99496.83
2023-03-24T00:21:22.993Z,99493.48
2023-03-24T00:23:27.974Z,99488.17
2023-03-24T00:25:33.193Z,99489.56
2023-03-24T00:27:38.173Z,99488.96
2023-03-24T00:29:43.269Z,99488.44
2023-03-24T00:31:48.246Z,99485.41
2023-03-24T00:33:53.318Z,99485.01
2023-03-24T00:35:58.455Z,99482.52
2023-03-24T00:38:03.531Z,99479.28
2023-03-24T00:40:08.501Z,99473.88
2023-03-24T00:42:13.502Z,99470.3
2023-03-24T00:44:18.644Z,99468.93
2023-03-24T00:46:23.977Z,99465.25
2023-03-24T00:48:29.067Z,99458.63
2023-03-24T00:50:34.139Z,99456.02
2023-03-24T00:52:39.133Z,99451.23
2023-03-24T00:54:44.251Z,99446.55
2023-03-24T00:56:49.364Z,99443.2
2023-03-24T00:58:54.464Z,99438.73
2023-03-24T01:00:59.555Z,99440.7
2023-03-24T01:03:04.972Z,99440.07
2023-03-24T01:05:10.075Z,99433.88
2023-03-24T01:07:15.138Z,99428.7
2023-03-24T01:09:20.150Z,99424.72
2023-03-24T01:11:25.167Z,99427.59
2023-03-24T01:13:30.355Z,99423.42
2023-03-24T01:15:35.347Z,99424.61
2023-03-24T01:17:40.502Z,99425.09
2023-03-24T01:19:45.554Z,99419.09
2023-03-24T01:21:50.574Z,99416.69
2023-03-24T01:23:55.560Z,99418.06
2023-03-24T01:26:00.557Z,99413.45
2023-03-24T01:28:05.599Z,99408.34
2023-03-24T01:30:10.575Z,99408.91
2023-03-24T01:32:15.555Z,99411.03
2023-03-24T01:34:20.509Z,99413.72
2023-03-24T01:36:25.517Z,99412.13
2023-03-24T01:38:30.515Z,99408.52
2023-03-24T01:40:35.622Z,99406.66
2023-03-24T01:42:40.723Z,99404.11
2023-03-24T01:44:45.729Z,99410.05
2023-03-24T01:46:50.744Z,99405.84
2023-03-24T01:48:55.805Z,99405.83
2023-03-24T01:51:00.789Z,99396.16
2023-03-24T01:53:05.816Z,99399.84
2023-03-24T01:55:10.886Z,99397.84
2023-03-24T01:57:15.876Z,99390.3
2023-03-24T01:59:20.835Z,99387.47
2023-03-24T02:01:25.924Z,99381.9
2023-03-24T02:03:30.995Z,99377.68
2023-03-24T02:05:35.960Z,99378.59
2023-03-24T02:07:41.060Z,99374.06
2023-03-24T02:09:46.016Z,99375.16
2023-03-24T02:11:50.993Z,99374.41
2023-03-24T02:13:56.073Z,99373.46
2023-03-24T02:16:01.185Z,99371.05
2023-03-24T02:18:06.392Z,99371.05
2023-03-24T02:20:11.566Z,99368.5
2023-03-24T02:22:16.578Z,99367.75
2023-03-24T02:24:21.605Z,99366.73
2023-03-24T02:26:26.556Z,99376.75
2023-03-24T02:28:31.586Z,99374.61
2023-03-24T02:30:36.663Z,99367.31
2023-03-24T02:32:41.784Z,99365.98
2023-03-24T02:34:46.778Z,99361.45
2023-03-24T02:36:51.794Z,99357.38
2023-03-24T02:38:56.765Z,99355.98
2023-03-24T02:41:01.754Z,99355.7
2023-03-24T02:43:06.763Z,99353.86
2023-03-24T02:45:11.906Z,99354.54
2023-03-24T02:47:16.911Z,99350.65
2023-03-24T02:49:21.874Z,99352.54
2023-03-24T02:51:26.882Z,99354.55
2023-03-24T02:53:31.851Z,99350.1
2023-03-24T02:55:36.846Z,99347.95
2023-03-24T02:58:51.060Z,99340.92
2023-03-24T03:00:56.069Z,99342.48
2023-03-24T03:03:01.140Z,99335.03
2023-03-24T03:05:06.236Z,99339.25
2023-03-24T03:07:11.444Z,99341.74
2023-03-24T03:09:16.408Z,99336.59
2023-03-24T03:11:21.435Z,99340.09
2023-03-24T03:13:26.418Z,99339.39
2023-03-24T03:15:31.503Z,99338.05
2023-03-24T03:17:36.765Z,99342.01
2023-03-24T03:19:41.902Z,99335.63
2023-03-24T03:21:46.895Z,99332.64
2023-03-24T03:23:51.858Z,99339.92
2023-03-24T03:25:56.825Z,99336.14
2023-03-24T03:28:01.835Z,99330.22
2023-03-24T03:30:06.803Z,99335.98
2023-03-24T03:32:11.840Z,99338.58
2023-03-24T03:34:16.821Z,99338.77
2023-03-24T03:36:21.911Z,99333.49
2023-03-24T03:38:26.999Z,99331.26
2023-03-24T03:40:31.956Z,99330.16
2023-03-24T03:42:36.989Z,99331.98
2023-03-24T03:44:41.987Z,99325.16
2023-03-24T03:46:46.997Z,99321.52
2023-03-24T03:48:51.991Z,99320.05
2023-03-24T03:51:14.092Z,99321.75
2023-03-24T03:53:19.655Z,99318.52
2023-03-24T03:55:24.629Z,99316.05
2023-03-24T03:57:29.655Z,99314.99
2023-03-24T03:59:34.681Z,99309.86
2023-03-24T04:01:39.811Z,99308.79
2023-03-24T04:03:45.038Z,99305.02
2023-03-24T04:05:50.140Z,99305.88
2023-03-24T04:07:55.128Z,99306.05
2023-03-24T04:10:00.051Z,99308.52
2023-03-24T04:12:05.175Z,99308.33
2023-03-24T04:14:10.191Z,99303.92
2023-03-24T04:16:15.242Z,99302.38
2023-03-24T04:18:20.356Z,99304.86
2023-03-24T04:20:25.370Z,99305.16
2023-03-24T04:22:30.356Z,99297.29
2023-03-24T04:24:35.379Z,99298.77
2023-03-24T04:26:40.355Z,99295.69
2023-03-24T04:28:45.324Z,99289.23
2023-03-24T04:30:50.345Z,99288.65
2023-03-24T04:32:55.483Z,99286.93
2023-03-24T04:35:00.540Z,99282.62
2023-03-24T04:37:05.768Z,99286.69
2023-03-24T04:39:10.764Z,99286.05
2023-03-24T04:41:16.893Z,99287.77
2023-03-24T04:43:21.991Z,99285.35
2023-03-24T04:45:27.114Z,99281.14
2023-03-24T04:47:32.340Z,99278.67
2023-03-24T04:49:37.481Z,99276.44
2023-03-24T04:51:42.578Z,99277.64
2023-03-24T04:53:47.551Z,99277.35
2023-03-24T04:55:52.626Z,99271.5
2023-03-24T04:57:57.661Z,99266.88
2023-03-24T05:00:02.726Z,99266.56
2023-03-24T05:02:07.685Z,99268.3
2023-03-24T05:04:12.765Z,99263.92
2023-03-24T05:06:17.884Z,99264.42
2023-03-24T05:08:22.888Z,99262.67
2023-03-24T05:10:27.854Z,99265.83
2023-03-24T05:12:32.855Z,99263.66
2023-03-24T05:14:37.858Z,99262.86
2023-03-24T05:16:42.993Z,99272.88
2023-03-24T05:18:48.125Z,99266.94
2023-03-24T05:20:53.126Z,99268.64
2023-03-24T05:22:58.118Z,99275.19
2023-03-24T05:25:03.092Z,99274.03
2023-03-24T05:27:08.096Z,99271.27
2023-03-24T05:29:13.074Z,99274.44
2023-03-24T05:31:18.210Z,99271.92
2023-03-24T05:33:23.372Z,99267.92
2023-03-24T05:35:28.613Z,99265.84
2023-03-24T05:37:33.638Z,99272.7
2023-03-24T05:39:38.670Z,99274.64
2023-03-24T05:41:43.707Z,99277.38
2023-03-24T05:43:48.686Z,99282.92
2023-03-24T05:45:53.979Z,99280.13
2023-03-24T05:47:59.145Z,99272.63
2023-03-24T05:50:04.214Z,99276.48
2023-03-24T05:52:09.236Z,99274.14
2023-03-24T05:54:14.233Z,99271.54
2023-03-24T05:56:19.174Z,99272.48
2023-03-24T05:58:24.209Z,99279.42
2023-03-24T06:00:29.185Z,99283.76
2023-03-24T06:02:34.380Z,99276.94
2023-03-24T06:04:39.687Z,99279.27
2023-03-24T06:06:44.856Z,99270.52
2023-03-24T06:08:49.874Z,99269.2
2023-03-24T06:10:54.839Z,99269.08
2023-03-24T06:12:59.861Z,99272.74
2023-03-24T06:15:04.901Z,99265.27
2023-03-24T06:17:09.923Z,99265.73
2023-03-24T06:19:14.920Z,99269.11
2023-03-24T06:21:19.883Z,99266.11
2023-03-24T06:23:24.945Z,99262.36
2023-03-24T06:25:30.209Z,99261
2023-03-24T06:27:35.231Z,99262.91
2023-03-24T06:29:40.209Z,99260.67
2023-03-24T06:31:45.255Z,99259.25
2023-03-24T06:33:50.253Z,99251.45
2023-03-24T06:35:55.364Z,99252.11
2023-03-24T06:38:00.462Z,99249.85
2023-03-24T06:40:05.422Z,99249.09
2023-03-24T06:42:10.498Z,99249.54
2023-03-24T06:44:15.464Z,99253.62
2023-03-24T06:46:20.474Z,99255.44
2023-03-24T06:48:25.537Z,99248.44
2023-03-24T06:50:30.530Z,99251.92
2023-03-24T06:52:35.585Z,99246.73
2023-03-24T06:54:42.874Z,99246.83
2023-03-24T06:56:47.881Z,99247.49
2023-03-24T06:58:52.851Z,99244.41
2023-03-24T07:00:57.777Z,99245.82
2023-03-24T07:03:02.939Z,99253.83
2023-03-24T07:05:08.095Z,99246
2023-03-24T07:08:24.064Z,99244.13
2023-03-24T07:10:42.636Z,99251.95
2023-03-24T07:12:48.033Z,99249.91
2023-03-24T07:14:53.046Z,99245.13
2023-03-24T07:16:58.077Z,99252.92
2023-03-24T07:19:03.170Z,99252.77
2023-03-24T07:21:08.230Z,99253.83
2023-03-24T07:23:13.255Z,99251.62
2023-03-24T07:25:18.361Z,99246.58
2023-03-24T07:27:23.385Z,99235.19
2023-03-24T07:29:28.371Z,99244.03
2023-03-24T07:31:33.510Z,99240.31
2023-03-24T07:33:38.622Z,99236.72
2023-03-24T07:35:44.150Z,99240.67
2023-03-24T07:37:49.757Z,99232.09
2023-03-24T07:39:54.649Z,99231.67
2023-03-24T07:41:59.571Z,99224.75
2023-03-24T07:44:04.492Z,99224.33
2023-03-24T07:46:11.578Z,99223.79
2023-03-24T07:48:16.692Z,99231.24
2023-03-24T07:50:21.668Z,99223.9
2023-03-24T07:52:26.631Z,99223.58
2023-03-24T07:54:31.652Z,99216.55
2023-03-24T07:56:36.732Z,99213.47
2023-03-24T07:58:41.864Z,99207.54
2023-03-24T08:00:47.149Z,99205.88
2023-03-24T08:02:52.921Z,99194.86
2023-03-24T08:04:58.651Z,99197.65
2023-03-24T08:07:03.679Z,99196.09
2023-03-24T08:09:08.682Z,99194.96
2023-03-24T08:11:13.766Z,99189.77
2023-03-24T08:13:18.714Z,99190.68
2023-03-24T08:15:23.839Z,99195.46
2023-03-24T08:17:28.996Z,99192.72
2023-03-24T08:19:34.062Z,99188.91
2023-03-24T08:21:44.218Z,99192.5
2023-03-24T08:23:49.561Z,99190.78
2023-03-24T08:25:54.555Z,99196.89
2023-03-24T08:27:59.645Z,99195.27
2023-03-24T08:30:04.683Z,99190.41
2023-03-24T08:32:09.776Z,99192.7
2023-03-24T08:34:14.785Z,99181.68
2023-03-24T08:36:19.892Z,99176.68
2023-03-24T08:38:24.987Z,99170.36
2023-03-24T08:40:30.034Z,99163.18
2023-03-24T08:42:35.058Z,99160.03
2023-03-24T08:44:40.086Z,99155.62
2023-03-24T08:46:45.570Z,99158.48
2023-03-24T08:48:50.639Z,99153.08
2023-03-24T08:50:55.624Z,99151.9
2023-03-24T08:53:00.618Z,99152.25
2023-03-24T08:55:05.640Z,99151.85
2023-03-24T08:57:10.725Z,99152.25
2023-03-24T08:59:15.833Z,99143.89
2023-03-24T09:01:20.922Z,99145.83
2023-03-24T09:03:26.131Z,99143.35
2023-03-24T09:05:55.578Z,99141.14
2023-03-24T09:08:00.856Z,99141.67
2023-03-24T09:10:05.951Z,99137.69
2023-03-24T09:12:11.064Z,99145.34
2023-03-24T09:14:16.269Z,99146.64
2023-03-24T09:16:21.398Z,99139.82
2023-03-24T09:18:26.465Z,99137.99
2023-03-24T09:20:31.504Z,99136.42
2023-03-24T09:22:36.572Z,99130.71
2023-03-24T09:24:41.592Z,99123.48
2023-03-24T09:26:46.563Z,99121.09
2023-03-24T09:28:51.596Z,99120.26
2023-03-24T09:30:56.723Z,99114.41
2023-03-24T09:33:01.968Z,99115.42
2023-03-24T09:35:07.241Z,99108.59
2023-03-24T09:37:12.283Z,99104.4
2023-03-24T09:39:19.723Z,99104.48
2023-03-24T09:41:25.216Z,99102
2023-03-24T09:43:30.209Z,99105.91
2023-03-24T09:45:35.342Z,99105.8
2023-03-24T09:47:40.484Z,99108.64
2023-03-24T09:49:45.538Z,99104.89
2023-03-24T09:51:50.595Z,99103.24
2023-03-24T09:53:55.626Z,99100.42
2023-03-24T09:56:00.817Z,99090.14
2023-03-24T09:58:05.829Z,99089.18
2023-03-24T10:00:10.823Z,99089.99
2023-03-24T10:02:15.874Z,99088.67
2023-03-24T10:04:21.151Z,99082.7
2023-03-24T10:06:26.196Z,99076.38
2023-03-24T10:08:33.126Z,99066.64
2023-03-24T10:10:38.161Z,99071.25
2023-03-24T10:12:43.192Z,99065.45
2023-03-24T10:14:48.209Z,99063.34
2023-03-24T10:16:53.203Z,99061.36
2023-03-24T10:18:58.335Z,99059.59
2023-03-24T10:21:03.370Z,99060.75
2023-03-24T10:23:08.335Z,99054.94
2023-03-24T10:25:13.518Z,99055.17
2023-03-24T10:27:18.574Z,99050.67
2023-03-24T10:29:23.717Z,99052.05
2023-03-24T10:31:28.799Z,99048.81
2023-03-24T10:33:33.854Z,99046.34
2023-03-24T10:35:39.123Z,99038.87
2023-03-24T10:37:44.265Z,99038.25
2023-03-24T10:39:49.317Z,99039.84
2023-03-24T10:41:54.452Z,99041.03
2023-03-24T10:43:59.448Z,99029.34
2023-03-24T10:46:04.681Z,99035.02
2023-03-24T10:48:09.917Z,99031.66
2023-03-24T10:50:18.499Z,99039.77
2023-03-24T10:52:23.525Z,99038.8
2023-03-24T10:54:28.531Z,99042.63
2023-03-24T10:56:33.622Z,99043.71
2023-03-24T10:58:38.710Z,99050.31
2023-03-24T11:00:44.025Z,99042.03
2023-03-24T11:02:49.124Z,99044.32
2023-03-24T11:04:54.311Z,99048.43
2023-03-24T11:07:00.770Z,99046.15
2023-03-24T11:09:06.703Z,99046.52
2023-03-24T11:11:11.699Z,99040.89
2023-03-24T11:13:19.164Z,99035.16
2023-03-24T11:15:25.083Z,99033.56
2023-03-24T11:17:30.215Z,99028.86
2023-03-24T11:19:35.323Z,99029.55
2023-03-24T11:21:40.377Z,99033.81
2023-03-24T11:23:45.371Z,99024.89
2023-03-24T11:25:50.749Z,99023.74
2023-03-24T11:27:55.872Z,99025.63
2023-03-24T11:30:00.945Z,99028.35
2023-03-24T11:32:06.069Z,99028.28
2023-03-24T11:34:11.052Z,99028.8
2023-03-24T11:36:16.131Z,99022.12
2023-03-24T11:38:21.173Z,99024.52
2023-03-24T11:40:26.183Z,99017.67
2023-03-24T11:42:31.300Z,99015.94
2023-03-24T11:44:36.619Z,99022.43
2023-03-24T11:46:41.897Z,99017.09
2023-03-24T11:48:46.950Z,99017.17
2023-03-24T11:50:52.033Z,99009.26
2023-03-24T11:52:57.097Z,99010.55
2023-03-24T11:55:02.194Z,99006.31
2023-03-24T11:57:07.297Z,99001.95
2023-03-24T11:59:12.567Z,99001.49
2023-03-24T12:01:17.591Z,98999.42
2023-03-24T12:03:22.880Z,98997.5
2023-03-24T12:05:28.248Z,99001.84
2023-03-24T12:07:33.291Z,99001.88
2023-03-24T12:09:38.437Z,99000.77
2023-03-24T12:11:43.470Z,99003.02
2023-03-24T12:13:48.453Z,99005.36
2023-03-24T12:15:53.549Z,99000.88
2023-03-24T12:17:58.767Z,99007.39
2023-03-24T12:20:03.851Z,99001.67
2023-03-24T12:22:08.879Z,98997.5
2023-03-24T12:24:13.892Z,98998.47
2023-03-24T12:26:18.876Z,99000.56
2023-03-24T12:28:23.911Z,99002.07
2023-03-24T12:30:28.963Z,98999
2023-03-24T12:32:34.110Z,99002.25
2023-03-24T12:34:39.174Z,98992.78
2023-03-24T12:36:44.181Z,98994.61
2023-03-24T12:38:49.208Z,98993.3
2023-03-24T12:40:54.222Z,98991.84
2023-03-24T12:42:59.274Z,98987.23
2023-03-24T12:45:04.570Z,98990.66
2023-03-24T12:47:09.577Z,98991.02
2023-03-24T12:49:14.603Z,98986.23
2023-03-24T12:51:19.597Z,98988
2023-03-24T12:53:24.618Z,98981.28
2023-03-24T12:55:29.868Z,98982.12
2023-03-24T12:57:34.980Z,98978.72
2023-03-24T12:59:40.127Z,98980.31
2023-03-24T13:01:45.152Z,98977.6
2023-03-24T13:03:50.154Z,98981.68
2023-03-24T13:06:04.629Z,98982.47
2023-03-24T13:08:21.244Z,98973.77
2023-03-24T13:10:26.293Z,98972.09
2023-03-24T13:12:31.343Z,98978.02
2023-03-24T13:14:36.392Z,98972.91
2023-03-24T13:16:41.599Z,98976.67
2023-03-24T13:18:46.680Z,98968.14
2023-03-24T13:20:51.688Z,98967.03
2023-03-24T13:22:56.708Z,98956.73
2023-03-24T13:25:01.834Z,98958.97
2023-03-24T13:27:07.023Z,98953.04
2023-03-24T13:29:12.132Z,98951.05
2023-03-24T13:31:17.181Z,98946.09
2023-03-24T13:33:22.284Z,98951.71
2023-03-24T13:35:27.286Z,98948.31
2023-03-24T13:37:32.322Z,98944.84
2023-03-24T13:39:37.341Z,98943.64
2023-03-24T13:41:44.452Z,98941.12
2023-03-24T13:43:49.552Z,98941.38
2023-03-24T13:45:54.741Z,98941.28
2023-03-24T13:47:59.885Z,98934.58
2023-03-24T13:50:05.068Z,98937.02
2023-03-24T13:52:10.052Z,98941.95
2023-03-24T13:54:15.110Z,98941.5
2023-03-24T13:56:20.213Z,98937.2
2023-03-24T13:58:25.212Z,98941.11
2023-03-24T14:00:30.412Z,98945.16
2023-03-24T14:02:35.527Z,98938.91
2023-03-24T14:04:40.644Z,98937.41
2023-03-24T14:06:45.633Z,98935.69
2023-03-24T14:08:50.633Z,98937.77
2023-03-24T14:10:56.096Z,98932.34
2023-03-24T14:13:01.253Z,98928.02
2023-03-24T14:15:06.386Z,98928.17
2023-03-24T14:17:11.475Z,98922.47
2023-03-24T14:19:16.451Z,98922.06
2023-03-24T14:21:21.523Z,98919.89
2023-03-24T14:23:26.513Z,98922.72
2023-03-24T14:25:31.629Z,98926.13
2023-03-24T14:27:36.650Z,98924.95
2023-03-24T14:29:41.664Z,98924.27
2023-03-24T14:31:46.849Z,98925.91
2023-03-24T14:33:51.954Z,98925.06
2023-03-24T14:35:57.009Z,98920.5
2023-03-24T14:38:02.426Z,98922.81
2023-03-24T14:40:07.437Z,98925.97
2023-03-24T14:42:12.443Z,98925.13
2023-03-24T14:44:17.452Z,98924.59
2023-03-24T14:46:22.557Z,98923.79
2023-03-24T14:48:27.654Z,98918.31
2023-03-24T14:50:32.649Z,98923.58
2023-03-24T14:52:40.163Z,98925.49
2023-03-24T14:54:45.453Z,98915.76
2023-03-24T14:56:50.575Z,98918.85
2023-03-24T14:58:55.951Z,98918.95
2023-03-24T15:01:07.413Z,98918.38
2023-03-24T15:03:13.639Z,98915.55
2023-03-24T15:05:19.634Z,98914.64
2023-03-24T15:07:27.128Z,98910.23
2023-03-24T15:09:32.278Z,98908.31
2023-03-24T15:11:37.277Z,98909.4
2023-03-24T15:13:42.378Z,98902.97
2023-03-24T15:15:47.541Z,98888.44
2023-03-24T15:17:52.760Z,98905.19
2023-03-24T15:19:57.823Z,98891.3
2023-03-24T15:22:02.848Z,98894.95
2023-03-24T15:24:07.821Z,98893.43
2023-03-24T15:26:12.837Z,98891.14
2023-03-24T15:28:17.881Z,98889.92
2023-03-24T15:30:22.853Z,98902.64
2023-03-24T15:32:27.990Z,98899.22
2023-03-24T15:34:33.184Z,98910.09
2023-03-24T15:36:38.131Z,98895.39
2023-03-24T15:38:43.232Z,98894.53
2023-03-24T15:40:48.640Z,98889.84
2023-03-24T15:42:54.000Z,98888.09
2023-03-24T15:44:59.069Z,98882.8
2023-03-24T15:47:04.167Z,98888.16
2023-03-24T15:49:09.175Z,98888.77
2023-03-24T15:51:14.304Z,98898.07
2023-03-24T15:53:19.333Z,98897.09
2023-03-24T15:55:24.311Z,98897.92
2023-03-24T15:57:29.362Z,98897.05
2023-03-24T15:59:34.356Z,98891.64
2023-03-24T16:01:39.635Z,98886.66
2023-03-24T16:03:47.950Z,98875.95
2023-03-24T16:05:52.952Z,98887.67
2023-03-24T16:07:57.916Z,98907
2023-03-24T16:10:02.859Z,98890.42
2023-03-24T16:12:07.843Z,98895.39
2023-03-24T16:14:12.859Z,98904.09
2023-03-24T16:16:18.038Z,98901.23
2023-03-24T16:18:23.197Z,98896.3
2023-03-24T16:20:28.199Z,98897.98
2023-03-24T16:22:33.268Z,98895.11
2023-03-24T16:24:38.261Z,98896.81
2023-03-24T16:26:43.217Z,98896.25
2023-03-24T16:28:48.297Z,98900.77
2023-03-24T16:30:53.483Z,98899.84
2023-03-24T16:32:58.700Z,98897.61
2023-03-24T16:35:03.855Z,98899.04
2023-03-24T16:37:08.908Z,98903.7
2023-03-24T16:39:13.939Z,98905.7
2023-03-24T16:41:19.074Z,98906.33
2023-03-24T16:43:24.242Z,98907.8
2023-03-24T16:45:29.388Z,98911.07
2023-03-24T16:47:34.724Z,98906.52
2023-03-24T16:49:40.074Z,98910.91
2023-03-24T16:51:45.065Z,98907.61
2023-03-24T16:53:50.048Z,98911.67
2023-03-24T16:55:55.037Z,98915.78
2023-03-24T16:58:00.051Z,98914.48
2023-03-24T17:00:05.301Z,98918.15
2023-03-24T17:02:10.308Z,98922.05
2023-03-24T17:04:15.302Z,98926.91
2023-03-24T17:06:20.382Z,98925.02
2023-03-24T17:08:25.400Z,98927.5
2023-03-24T17:10:30.514Z,98929.38
2023-03-24T17:12:35.679Z,98932.08
2023-03-24T17:14:40.669Z,98940.64
2023-03-24T17:16:47.787Z,98939.38
2023-03-24T17:18:52.813Z,98933.61
2023-03-24T17:20:57.793Z,98938.77
2023-03-24T17:23:02.896Z,98940.8
2023-03-24T17:25:07.947Z,98935.15
2023-03-24T17:27:13.137Z,98937.94
2023-03-24T17:29:18.128Z,98944.42
2023-03-24T17:31:23.258Z,98949.61
2023-03-24T17:33:28.431Z,98967.13
2023-03-24T17:35:33.466Z,98985.45
2023-03-24T17:37:38.451Z,99028.33
2023-03-24T17:39:43.532Z,99051.64
2023-03-24T17:41:48.537Z,99072.19
2023-03-24T17:43:53.632Z,99068.05
2023-03-24T17:45:58.716Z,99069.67
2023-03-24T17:48:03.773Z,99078.91
2023-03-24T17:50:08.989Z,99086.73
2023-03-24T17:52:14.118Z,99094.88
2023-03-24T17:54:19.282Z,99088.69
2023-03-24T17:56:24.341Z,99091.05
2023-03-24T17:58:29.405Z,99084.9
2023-03-24T18:00:34.677Z,99090.67
2023-03-24T18:02:39.960Z,99088.66
2023-03-24T18:04:45.002Z,99082.64
2023-03-24T18:06:50.135Z,99077.99
2023-03-24T18:08:55.117Z,99079.88
2023-03-24T18:11:00.154Z,99086.61
2023-03-24T18:13:05.478Z,99094.58
2023-03-24T18:15:10.770Z,99101.75
2023-03-24T18:17:15.896Z,99103.5
2023-03-24T18:19:21.040Z,99105.95
2023-03-24T18:21:26.053Z,99100.16
2023-03-24T18:23:31.061Z,99091.17
2023-03-24T18:25:36.212Z,99094.15
2023-03-24T18:27:41.463Z,99102.16
2023-03-24T18:29:46.587Z,99121.02
2023-03-24T18:31:51.804Z,99122.57
2023-03-24T18:33:57.014Z,99126.44
2023-03-24T18:36:02.120Z,99134.14
2023-03-24T18:38:07.109Z,99135.39
2023-03-24T18:40:12.328Z,99129.94
2023-03-24T18:42:17.364Z,99127.42
2023-03-24T18:44:22.459Z,99134.09
2023-03-24T18:46:27.664Z,99118.56
2023-03-24T18:48:33.232Z,99122.52
2023-03-24T18:50:38.401Z,99114.8
2023-03-24T18:52:43.476Z,99113.89
2023-03-24T18:54:48.615Z,99115.83
2023-03-24T18:56:53.901Z,99114.73
2023-03-24T18:58:59.030Z,99106.58
2023-03-24T19:01:04.262Z,99109.39
2023-03-24T19:03:09.517Z,99093.23
2023-03-24T19:05:14.818Z,99094.01
2023-03-24T19:07:19.934Z,99093.66
2023-03-24T19:09:25.150Z,99082.77
2023-03-24T19:11:30.215Z,99081.56
2023-03-24T19:13:35.404Z,99080.95
2023-03-24T19:15:40.514Z,99079.16
2023-03-24T19:17:45.771Z,99074.5
2023-03-24T19:19:50.945Z,99070.08
2023-03-24T19:21:56.018Z,99064.47
2023-03-24T19:24:01.051Z,99068.13
2023-03-24T19:26:06.095Z,99074.53
2023-03-24T19:28:11.196Z,99073.06
2023-03-24T19:30:16.181Z,99077.68
2023-03-24T19:32:21.202Z,99078.34
2023-03-24T19:34:26.269Z,99091.8
2023-03-24T19:36:31.264Z,99105.23
2023-03-24T19:38:36.283Z,99104.59
2023-03-24T19:40:41.410Z,99114.92
2023-03-24T19:42:46.517Z,99105.04
2023-03-24T19:44:51.612Z,99098.3
2023-03-24T19:46:56.723Z,99095.95
2023-03-24T19:49:01.876Z,99105.33
2023-03-24T19:51:07.027Z,99114.73
2023-03-24T19:53:12.169Z,99113.4
2023-03-24T19:55:17.441Z,99119.71
2023-03-24T19:57:22.515Z,99132.41
2023-03-24T19:59:27.556Z,99135.74
2023-03-24T20:01:32.725Z,99131.7
2023-03-24T20:03:38.503Z,99131.3
2023-03-24T20:05:43.895Z,99128.91
2023-03-24T20:07:48.938Z,99127.03
2023-03-24T20:09:53.947Z,99122.79
2023-03-24T20:11:58.978Z,99124.42
2023-03-24T20:14:04.066Z,99129.92
2023-03-24T20:16:09.236Z,99121.25
2023-03-24T20:18:14.379Z,99124.73
2023-03-24T20:20:19.599Z,99129.09
2023-03-24T20:22:24.610Z,99131.16
2023-03-24T20:24:29.720Z,99116.05
2023-03-24T20:26:34.743Z,99110.09
2023-03-24T20:28:39.883Z,99116.28
2023-03-24T20:30:45.126Z,99123.88
2023-03-24T20:32:50.308Z,99130.25
2023-03-24T20:34:55.422Z,99128.66
2023-03-24T20:37:00.470Z,99129.5
2023-03-24T20:39:05.517Z,99137.36
2023-03-24T20:41:10.558Z,99140.42
2023-03-24T20:43:15.639Z,99152.81
2023-03-24T20:45:20.686Z,99155.16
2023-03-24T20:47:25.826Z,99148.42
2023-03-24T20:49:30.933Z,99144.13
2023-03-24T20:51:36.008Z,99148.17
2023-03-24T20:53:41.047Z,99160.11
2023-03-24T20:55:46.131Z,99160.52
2023-03-24T20:57:51.439Z,99154.5
2023-03-24T20:59:56.425Z,99157.77
2023-03-24T21:02:01.592Z,99157.28
2023-03-24T21:04:10.671Z,99151.88
2023-03-24T21:06:15.596Z,99152.86
2023-03-24T21:08:20.624Z,99152.42
2023-03-24T21:10:25.682Z,99164.05
2023-03-24T21:12:30.753Z,99167.38
2023-03-24T21:14:35.926Z,99167.39
2023-03-24T21:16:41.083Z,99158.57
2023-03-24T21:18:46.241Z,99161.09
2023-03-24T21:20:51.328Z,99161.92
2023-03-24T21:22:56.643Z,99161.25
2023-03-24T21:25:01.627Z,99156.02
2023-03-24T21:27:06.724Z,99150.77
2023-03-24T21:29:11.754Z,99154.28
2023-03-24T21:31:16.912Z,99161.3
2023-03-24T21:33:22.044Z,99158.63
2023-03-24T21:35:27.146Z,99158.25
2023-03-24T21:37:32.128Z,99161.06
2023-03-24T21:39:37.138Z,99165.76
2023-03-24T21:41:42.205Z,99159.7
2023-03-24T21:43:47.282Z,99157.73
2023-03-24T21:45:52.575Z,99159.52
2023-03-24T21:47:57.646Z,99162.9
2023-03-24T21:50:02.749Z,99162.81
2023-03-24T21:52:07.984Z,99156.06
2023-03-24T21:54:13.098Z,99162.7
2023-03-24T21:56:18.076Z,99169.51
2023-03-24T21:58:23.057Z,99155.95
2023-03-24T22:00:28.154Z,99147.5
2023-03-24T22:02:33.287Z,99152.27
2023-03-24T22:04:38.344Z,99149.33
2023-03-24T22:06:43.369Z,99149.06
2023-03-24T22:08:48.374Z,99157.78
2023-03-24T22:10:53.471Z,99163.22
2023-03-24T22:12:58.472Z,99157.73
2023-03-24T22:15:03.545Z,99163.94
2023-03-24T22:17:08.677Z,99162.47
2023-03-24T22:19:13.779Z,99170.13
2023-03-24T22:21:18.808Z,99170.89
2023-03-24T22:23:24.016Z,99173.54
2023-03-24T22:25:28.981Z,99172.55
2023-03-24T22:27:34.022Z,99172.78
2023-03-24T22:29:39.028Z,99170.89
2023-03-24T22:31:44.077Z,99172.52
2023-03-24T22:33:49.323Z,99170.45
2023-03-24T22:35:54.672Z,99168.32
2023-03-24T22:37:59.802Z,99159.35
2023-03-24T22:40:04.912Z,99157.98
2023-03-24T22:42:09.895Z,99163.48
2023-03-24T22:44:14.906Z,99165.7
2023-03-24T22:46:20.005Z,99168.77
2023-03-24T22:48:25.084Z,99163.28
2023-03-24T22:50:30.109Z,99164.5
2023-03-24T22:52:35.105Z,99168.2
2023-03-24T22:54:40.172Z,99168.41
2023-03-24T22:56:45.266Z,99174.55
2023-03-24T22:58:50.390Z,99175.47
2023-03-24T23:00:55.464Z,99178.8
2023-03-24T23:03:00.570Z,99182.59
2023-03-24T23:05:05.753Z,99186.69
2023-03-24T23:07:10.946Z,99183.59
2023-03-24T23:09:15.955Z,99183.67
2023-03-24T23:11:20.951Z,99179.84
2023-03-24T23:13:25.959Z,99184.54
2023-03-24T23:15:30.945Z,99181.27
2023-03-24T23:17:36.221Z,99178.55
2023-03-24T23:19:41.353Z,99182.22
2023-03-24T23:21:46.331Z,99179.37
2023-03-24T23:23:51.352Z,99180.64
2023-03-24T23:25:56.344Z,99180.66
2023-03-24T23:28:01.431Z,99185.64
2023-03-24T23:30:06.457Z,99186.11
2023-03-24T23:32:11.581Z,99193.78
2023-03-24T23:34:16.724Z,99185.34
2023-03-24T23:36:21.803Z,99187.29
2023-03-24T23:38:26.860Z,99189.3
2023-03-24T23:40:31.928Z,99189.73
2023-03-24T23:42:37.005Z,99185.17
2023-03-24T23:44:42.020Z,99186.23
2023-03-24T23:46:47.098Z,99178.09
2023-03-24T23:48:52.066Z,99183.06
2023-03-24T23:50:57.168Z,99181.88
2023-03-24T23:53:02.253Z,99182.33
2023-03-24T23:55:07.225Z,99184.06
2023-03-24T23:57:12.336Z,99184.06
2023-03-24T23:59:17.441Z,99183.59
